createdAt,value
2023-03-12T00:00:57.909Z,95203.16
2023-03-12T00:02:00.871Z,95202.00
2023-03-12T00:03:02.903Z,95196.59
2023-03-12T00:04:07.394Z,95210.84
2023-03-12T00:05:10.233Z,95195.00
2023-03-12T00:06:13.292Z,95199.66
2023-03-12T00:07:15.149Z,95184.56
2023-03-12T00:08:18.050Z,95189.19
2023-03-12T00:09:21.147Z,95189.19
2023-03-12T00:10:24.105Z,95195.41
2023-03-12T00:11:25.986Z,95189.19
2023-03-12T00:12:28.929Z,95191.91
2023-03-12T00:13:30.835Z,95199.25
2023-03-12T00:14:34.427Z,95187.66
2023-03-12T00:15:37.658Z,95194.22
2023-03-12T00:16:40.556Z,95198.13
2023-03-12T00:17:42.547Z,95187.28
2023-03-12T00:18:45.553Z,95193.88
2023-03-12T00:19:51.741Z,95193.88
2023-03-12T00:20:55.406Z,95194.66
2023-03-12T00:21:58.232Z,95193.88
2023-03-12T00:23:00.172Z,95195.41
2023-03-12T00:24:02.988Z,95188.06
2023-03-12T00:25:07.579Z,95196.19
2023-03-12T00:26:12.847Z,95199.66
2023-03-12T00:27:14.749Z,95196.94
2023-03-12T00:28:17.574Z,95191.53
2023-03-12T00:29:19.492Z,95193.88
2023-03-12T00:30:22.541Z,95195.78
2023-03-12T00:31:27.580Z,95191.56
2023-03-12T00:32:30.632Z,95196.97
2023-03-12T00:33:32.554Z,95197.34
2023-03-12T00:34:35.501Z,95200.06
2023-03-12T00:35:39.616Z,95198.53
2023-03-12T00:36:42.408Z,95198.53
2023-03-12T00:37:44.942Z,95198.91
2023-03-12T00:38:48.230Z,95200.84
2023-03-12T00:39:50.283Z,95204.72
2023-03-12T00:40:53.106Z,95212.47
2023-03-12T00:41:55.222Z,95208.59
2023-03-12T00:42:58.479Z,95205.88
2023-03-12T00:44:00.503Z,95209.38
2023-03-12T00:45:03.437Z,95206.66
2023-03-12T00:46:05.457Z,95205.53
2023-03-12T00:47:08.708Z,95204.75
2023-03-12T00:48:10.625Z,95204.75
2023-03-12T00:49:13.688Z,95205.94
2023-03-12T00:50:15.960Z,95209.78
2023-03-12T00:51:20.270Z,95213.28
2023-03-12T00:52:22.258Z,95201.66
2023-03-12T00:53:25.156Z,95198.59
2023-03-12T00:54:27.061Z,95197.03
2023-03-12T00:55:29.905Z,95193.19
2023-03-12T00:56:32.252Z,95201.69
2023-03-12T00:57:35.286Z,95203.63
2023-03-12T00:58:38.188Z,95198.97
2023-03-12T00:59:40.538Z,95207.91
2023-03-12T01:00:43.926Z,95205.94
2023-03-12T01:01:45.818Z,95203.25
2023-03-12T01:02:48.801Z,95204.41
2023-03-12T01:03:52.028Z,95207.09
2023-03-12T01:04:55.113Z,95197.06
2023-03-12T01:05:57.529Z,95207.09
2023-03-12T01:07:01.991Z,95202.88
2023-03-12T01:08:05.195Z,95204.00
2023-03-12T01:09:10.137Z,95204.00
2023-03-12T01:10:14.685Z,95202.47
2023-03-12T01:11:19.664Z,95197.06
2023-03-12T01:12:21.531Z,95200.94
2023-03-12T01:13:24.608Z,95203.25
2023-03-12T01:14:26.582Z,95207.50
2023-03-12T01:15:29.878Z,95207.09
2023-03-12T01:16:32.258Z,95207.09
2023-03-12T01:17:35.106Z,95203.25
2023-03-12T01:18:37.030Z,95198.59
2023-03-12T01:19:41.069Z,95202.88
2023-03-12T01:20:42.923Z,95196.28
2023-03-12T01:21:45.773Z,95197.44
2023-03-12T01:22:49.038Z,95207.50
2023-03-12T01:23:52.544Z,95200.53
2023-03-12T01:24:54.453Z,95205.19
2023-03-12T01:25:57.741Z,95204.00
2023-03-12T01:26:59.684Z,95204.44
2023-03-12T01:28:03.017Z,95207.91
2023-03-12T01:29:04.990Z,95213.31
2023-03-12T01:30:09.186Z,95211.38
2023-03-12T01:31:13.946Z,95215.59
2023-03-12T01:32:17.158Z,95213.28
2023-03-12T01:33:19.193Z,95217.53
2023-03-12T01:34:22.103Z,95220.66
2023-03-12T01:35:24.127Z,95219.91
2023-03-12T01:36:29.603Z,95217.19
2023-03-12T01:37:32.857Z,95215.63
2023-03-12T01:38:37.108Z,95218.72
2023-03-12T01:39:39.022Z,95211.75
2023-03-12T01:40:43.766Z,95218.69
2023-03-12T01:41:45.650Z,95214.47
2023-03-12T01:42:53.731Z,95217.94
2023-03-12T01:43:56.698Z,95219.06
2023-03-12T01:45:01.084Z,95210.59
2023-03-12T01:46:27.224Z,95205.56
2023-03-12T01:47:32.830Z,95204.81
2023-03-12T01:48:41.681Z,95210.22
2023-03-12T01:49:46.335Z,95203.66
2023-03-12T01:50:48.594Z,95206.38
2023-03-12T01:51:56.449Z,95209.84
2023-03-12T01:52:59.820Z,95200.94
2023-03-12T01:54:08.671Z,95196.31
2023-03-12T01:55:16.404Z,95199.41
2023-03-12T01:56:22.947Z,95211.75
2023-03-12T01:57:31.783Z,95197.84
2023-03-12T01:58:38.898Z,95214.06
2023-03-12T01:59:44.076Z,95203.25
2023-03-12T02:00:47.193Z,95205.94
2023-03-12T02:01:51.163Z,95201.69
2023-03-12T02:02:56.462Z,95202.47
2023-03-12T02:04:01.301Z,95203.25
2023-03-12T02:05:10.244Z,95215.22
2023-03-12T02:06:14.403Z,95214.84
2023-03-12T02:07:18.847Z,95218.72
2023-03-12T02:08:23.148Z,95208.31
2023-03-12T02:09:27.828Z,95214.88
2023-03-12T02:10:29.792Z,95209.47
2023-03-12T02:11:32.767Z,95221.47
2023-03-12T02:12:35.314Z,95223.38
2023-03-12T02:13:38.704Z,95221.09
2023-03-12T02:14:41.170Z,95219.53
2023-03-12T02:15:44.225Z,95225.72
2023-03-12T02:16:46.370Z,95225.72
2023-03-12T02:17:49.326Z,95228.03
2023-03-12T02:18:54.659Z,95230.75
2023-03-12T02:20:07.908Z,95220.31
2023-03-12T02:21:16.241Z,95230.34
2023-03-12T02:22:20.998Z,95224.94
2023-03-12T02:23:30.465Z,95228.78
2023-03-12T02:24:41.656Z,95222.59
2023-03-12T02:25:47.932Z,95218.38
2023-03-12T02:26:51.279Z,95221.84
2023-03-12T02:27:54.333Z,95215.66
2023-03-12T02:28:57.914Z,95227.63
2023-03-12T02:30:00.557Z,95221.06
2023-03-12T02:31:05.052Z,95227.25
2023-03-12T02:32:10.625Z,95224.19
2023-03-12T02:33:13.146Z,95221.84
2023-03-12T02:34:16.004Z,95220.31
2023-03-12T02:35:18.298Z,95219.16
2023-03-12T02:36:21.723Z,95225.72
2023-03-12T02:37:23.920Z,95228.44
2023-03-12T02:38:36.083Z,95224.19
2023-03-12T02:39:42.454Z,95222.63
2023-03-12T02:40:48.376Z,95224.59
2023-03-12T02:41:53.942Z,95225.34
2023-03-12T02:42:57.124Z,95223.81
2023-03-12T02:44:05.282Z,95222.66
2023-03-12T02:45:08.507Z,95226.53
2023-03-12T02:46:11.531Z,95221.09
2023-03-12T02:47:13.514Z,95228.47
2023-03-12T02:48:16.412Z,95225.75
2023-03-12T02:49:21.516Z,95236.56
2023-03-12T02:50:24.866Z,95224.97
2023-03-12T02:51:26.949Z,95238.50
2023-03-12T02:52:35.511Z,95236.56
2023-03-12T02:53:37.631Z,95232.31
2023-03-12T02:54:40.665Z,95241.22
2023-03-12T02:55:42.553Z,95242.38
2023-03-12T02:56:46.830Z,95245.06
2023-03-12T02:57:48.990Z,95232.31
2023-03-12T02:58:51.870Z,95241.19
2023-03-12T02:59:53.832Z,95240.81
2023-03-12T03:00:57.021Z,95242.75
2023-03-12T03:02:02.080Z,95233.06
2023-03-12T03:03:04.243Z,95243.91
2023-03-12T03:04:08.947Z,95241.19
2023-03-12T03:05:11.997Z,95240.44
2023-03-12T03:06:15.781Z,95240.44
2023-03-12T03:07:17.819Z,95255.91
2023-03-12T03:08:20.884Z,95238.09
2023-03-12T03:09:24.645Z,95244.31
2023-03-12T03:10:27.498Z,95247.38
2023-03-12T03:11:30.303Z,95241.22
2023-03-12T03:12:36.913Z,95245.84
2023-03-12T03:13:39.976Z,95254.75
2023-03-12T03:14:43.084Z,95247.38
2023-03-12T03:15:45.040Z,95247.38
2023-03-12T03:16:48.336Z,95247.38
2023-03-12T03:17:50.338Z,95250.09
2023-03-12T03:18:53.494Z,95248.53
2023-03-12T03:19:55.830Z,95246.63
2023-03-12T03:21:00.426Z,95240.41
2023-03-12T03:22:02.576Z,95245.06
2023-03-12T03:23:06.482Z,95237.72
2023-03-12T03:24:08.579Z,95239.69
2023-03-12T03:25:11.783Z,95236.59
2023-03-12T03:26:14.496Z,95231.56
2023-03-12T03:27:17.569Z,95233.50
2023-03-12T03:28:21.263Z,95236.19
2023-03-12T03:29:24.574Z,95232.72
2023-03-12T03:30:26.682Z,95243.94
2023-03-12T03:31:30.657Z,95233.09
2023-03-12T03:32:34.048Z,95235.44
2023-03-12T03:33:38.013Z,95241.22
2023-03-12T03:34:41.909Z,95240.81
2023-03-12T03:35:43.893Z,95238.88
2023-03-12T03:36:46.881Z,95238.88
2023-03-12T03:37:51.043Z,95247.78
2023-03-12T03:38:53.930Z,95238.88
2023-03-12T03:39:55.872Z,95246.63
2023-03-12T03:40:59.061Z,95250.13
2023-03-12T03:42:01.162Z,95250.50
2023-03-12T03:43:06.503Z,95245.84
2023-03-12T03:44:10.715Z,95244.69
2023-03-12T03:45:14.612Z,95252.81
2023-03-12T03:46:18.552Z,95249.34
2023-03-12T03:47:26.301Z,95258.22
2023-03-12T03:48:28.299Z,95262.88
2023-03-12T03:49:31.291Z,95252.81
2023-03-12T03:50:33.296Z,95259.75
2023-03-12T03:51:36.184Z,95258.22
2023-03-12T03:52:42.888Z,95257.06
2023-03-12T03:53:45.762Z,95254.34
2023-03-12T03:54:47.713Z,95253.19
2023-03-12T03:55:50.661Z,95255.53
2023-03-12T03:56:52.738Z,95258.22
2023-03-12T03:57:57.020Z,95261.69
2023-03-12T03:58:58.988Z,95258.22
2023-03-12T04:00:08.935Z,95262.06
2023-03-12T04:01:16.137Z,95266.72
2023-03-12T04:02:20.453Z,95266.72
2023-03-12T04:03:22.528Z,95268.28
2023-03-12T04:04:25.453Z,95267.47
2023-03-12T04:05:27.638Z,95267.09
2023-03-12T04:06:31.327Z,95261.69
2023-03-12T04:07:33.439Z,95263.63
2023-03-12T04:08:37.786Z,95259.75
2023-03-12T04:09:42.413Z,95265.16
2023-03-12T04:10:45.429Z,95270.56
2023-03-12T04:11:47.358Z,95265.94
2023-03-12T04:12:51.154Z,95274.03
2023-03-12T04:13:53.197Z,95271.34
2023-03-12T04:14:59.519Z,95268.25
2023-03-12T04:16:03.041Z,95274.84
2023-03-12T04:17:06.329Z,95273.66
2023-03-12T04:18:10.211Z,95275.22
2023-03-12T04:19:13.305Z,95272.53
2023-03-12T04:20:15.376Z,95276.75
2023-03-12T04:21:18.914Z,95283.34
2023-03-12T04:22:22.979Z,95280.63
2023-03-12T04:23:26.755Z,95276.75
2023-03-12T04:24:29.114Z,95272.88
2023-03-12T04:25:32.162Z,95276.75
2023-03-12T04:26:34.190Z,95278.28
2023-03-12T04:27:38.385Z,95276.75
2023-03-12T04:28:40.552Z,95274.81
2023-03-12T04:29:45.423Z,95275.59
2023-03-12T04:30:55.057Z,95279.47
2023-03-12T04:31:59.285Z,95284.88
2023-03-12T04:33:01.191Z,95278.28
2023-03-12T04:34:04.331Z,95286.41
2023-03-12T04:35:06.636Z,95280.63
2023-03-12T04:36:10.449Z,95281.41
2023-03-12T04:37:16.359Z,95281.41
2023-03-12T04:38:18.635Z,95276.00
2023-03-12T04:39:21.664Z,95280.63
2023-03-12T04:40:26.751Z,95276.75
2023-03-12T04:41:29.683Z,95274.06
2023-03-12T04:42:37.819Z,95266.72
2023-03-12T04:43:40.876Z,95271.34
2023-03-12T04:44:43.083Z,95269.81
2023-03-12T04:45:46.037Z,95264.41
2023-03-12T04:46:48.028Z,95264.41
2023-03-12T04:47:56.246Z,95263.63
2023-03-12T04:48:58.188Z,95262.47
2023-03-12T04:50:01.657Z,95259.00
2023-03-12T04:51:04.887Z,95253.59
2023-03-12T04:52:08.150Z,95250.88
2023-03-12T04:53:10.377Z,95259.00
2023-03-12T04:54:13.411Z,95254.34
2023-03-12T04:55:17.240Z,95259.00
2023-03-12T04:56:20.165Z,95263.63
2023-03-12T04:57:22.760Z,95255.91
2023-03-12T04:58:25.610Z,95254.34
2023-03-12T04:59:27.585Z,95257.06
2023-03-12T05:00:30.738Z,95253.56
2023-03-12T05:01:34.486Z,95254.38
2023-03-12T05:02:42.141Z,95248.16
2023-03-12T05:03:45.435Z,95257.44
2023-03-12T05:04:48.510Z,95257.44
2023-03-12T05:05:50.523Z,95248.94
2023-03-12T05:06:53.520Z,95251.66
2023-03-12T05:07:55.367Z,95252.03
2023-03-12T05:08:58.327Z,95252.44
2023-03-12T05:10:00.294Z,95248.97
2023-03-12T05:11:03.621Z,95248.19
2023-03-12T05:12:07.269Z,95245.09
2023-03-12T05:13:14.001Z,95244.31
2023-03-12T05:14:16.904Z,95237.34
2023-03-12T05:15:20.565Z,95241.63
2023-03-12T05:16:23.624Z,95240.06
2023-03-12T05:17:25.744Z,95242.75
2023-03-12T05:18:28.870Z,95238.91
2023-03-12T05:19:33.007Z,95243.94
2023-03-12T05:20:35.017Z,95245.09
2023-03-12T05:21:38.294Z,95239.66
2023-03-12T05:22:40.840Z,95246.66
2023-03-12T05:23:44.306Z,95243.56
2023-03-12T05:24:47.225Z,95245.88
2023-03-12T05:25:50.098Z,95246.66
2023-03-12T05:26:52.047Z,95253.19
2023-03-12T05:27:58.578Z,95244.72
2023-03-12T05:29:01.713Z,95248.97
2023-03-12T05:30:05.904Z,95244.72
2023-03-12T05:31:10.371Z,95249.75
2023-03-12T05:32:13.320Z,95244.31
2023-03-12T05:33:15.665Z,95248.97
2023-03-12T05:34:18.670Z,95252.44
2023-03-12T05:35:23.270Z,95249.75
2023-03-12T05:36:26.755Z,95252.44
2023-03-12T05:37:29.586Z,95258.22
2023-03-12T05:38:32.933Z,95257.84
2023-03-12T05:39:35.054Z,95264.03
2023-03-12T05:40:41.282Z,95262.09
2023-03-12T05:41:44.330Z,95262.09
2023-03-12T05:42:50.498Z,95265.56
2023-03-12T05:43:56.274Z,95264.03
2023-03-12T05:44:59.305Z,95267.88
2023-03-12T05:46:04.349Z,95265.19
2023-03-12T05:47:08.690Z,95263.25
2023-03-12T05:48:11.819Z,95267.88
2023-03-12T05:49:13.840Z,95264.41
2023-03-12T05:50:17.189Z,95266.34
2023-03-12T05:51:21.564Z,95262.84
2023-03-12T05:52:24.669Z,95266.34
2023-03-12T05:53:26.858Z,95265.56
2023-03-12T05:54:30.308Z,95264.38
2023-03-12T05:55:34.776Z,95265.94
2023-03-12T05:56:38.297Z,95262.06
2023-03-12T05:57:40.754Z,95267.47
2023-03-12T05:58:45.419Z,95262.06
2023-03-12T05:59:47.305Z,95269.03
2023-03-12T06:00:51.178Z,95269.81
2023-03-12T06:01:53.423Z,95270.56
2023-03-12T06:02:56.645Z,95260.53
2023-03-12T06:03:58.730Z,95261.31
2023-03-12T06:05:02.364Z,95258.59
2023-03-12T06:06:04.993Z,95258.59
2023-03-12T06:07:09.359Z,95261.31
2023-03-12T06:08:11.480Z,95258.19
2023-03-12T06:09:14.863Z,95252.78
2023-03-12T06:10:17.678Z,95253.59
2023-03-12T06:11:20.977Z,95253.59
2023-03-12T06:12:23.172Z,95245.06
2023-03-12T06:13:28.024Z,95245.84
2023-03-12T06:14:31.525Z,95235.81
2023-03-12T06:15:36.111Z,95240.81
2023-03-12T06:16:40.427Z,95240.06
2023-03-12T06:17:43.640Z,95232.72
2023-03-12T06:18:46.912Z,95235.41
2023-03-12T06:19:52.760Z,95245.84
2023-03-12T06:20:55.608Z,95247.00
2023-03-12T06:21:58.947Z,95257.44
2023-03-12T06:23:04.102Z,95240.41
2023-03-12T06:24:08.979Z,95249.31
2023-03-12T06:25:25.804Z,95253.56
2023-03-12T06:26:28.079Z,95251.25
2023-03-12T06:27:31.263Z,95241.97
2023-03-12T06:28:33.591Z,95253.19
2023-03-12T06:29:36.477Z,95250.47
2023-03-12T06:30:39.316Z,95250.88
2023-03-12T06:31:44.060Z,95256.28
2023-03-12T06:32:47.081Z,95248.19
2023-03-12T06:33:49.145Z,95252.41
2023-03-12T06:34:52.066Z,95256.66
2023-03-12T06:35:55.485Z,95252.81
2023-03-12T06:36:58.658Z,95262.84
2023-03-12T06:38:00.542Z,95258.22
2023-03-12T06:39:08.176Z,95264.38
2023-03-12T06:40:13.091Z,95261.69
2023-03-12T06:41:17.245Z,95261.69
2023-03-12T06:42:20.720Z,95265.16
2023-03-12T06:43:22.690Z,95267.47
2023-03-12T06:44:25.580Z,95257.84
2023-03-12T06:45:27.475Z,95265.94
2023-03-12T06:46:30.716Z,95268.25
2023-03-12T06:47:32.985Z,95269.00
2023-03-12T06:48:37.294Z,95272.91
2023-03-12T06:49:40.484Z,95267.47
2023-03-12T06:50:42.450Z,95270.53
2023-03-12T06:51:45.365Z,95259.34
2023-03-12T06:52:47.319Z,95271.72
2023-03-12T06:53:50.145Z,95270.56
2023-03-12T06:54:53.460Z,95264.38
2023-03-12T06:55:56.339Z,95274.81
2023-03-12T06:56:59.368Z,95273.63
2023-03-12T06:58:03.940Z,95273.63
2023-03-12T06:59:06.979Z,95278.28
2023-03-12T07:00:10.438Z,95272.09
2023-03-12T07:01:13.395Z,95273.25
2023-03-12T07:02:15.311Z,95276.34
2023-03-12T07:03:18.279Z,95270.94
2023-03-12T07:04:20.507Z,95273.63
2023-03-12T07:05:23.489Z,95281.38
2023-03-12T07:06:25.540Z,95276.34
2023-03-12T07:07:28.416Z,95285.22
2023-03-12T07:08:31.893Z,95284.47
2023-03-12T07:09:34.807Z,95290.66
2023-03-12T07:10:38.001Z,95290.66
2023-03-12T07:11:40.850Z,95282.53
2023-03-12T07:12:42.818Z,95275.94
2023-03-12T07:13:46.715Z,95280.22
2023-03-12T07:14:48.614Z,95277.50
2023-03-12T07:15:51.528Z,95279.06
2023-03-12T07:16:54.508Z,95278.28
2023-03-12T07:17:59.886Z,95279.81
2023-03-12T07:19:03.881Z,95278.28
2023-03-12T07:20:07.185Z,95282.91
2023-03-12T07:21:10.031Z,95279.44
2023-03-12T07:22:11.948Z,95279.44
2023-03-12T07:23:15.213Z,95279.44
2023-03-12T07:24:18.138Z,95283.69
2023-03-12T07:25:20.126Z,95279.81
2023-03-12T07:26:24.732Z,95286.00
2023-03-12T07:27:26.599Z,95274.41
2023-03-12T07:28:29.607Z,95279.81
2023-03-12T07:29:32.426Z,95284.47
2023-03-12T07:30:35.111Z,95275.19
2023-03-12T07:31:37.982Z,95279.41
2023-03-12T07:32:41.545Z,95281.38
2023-03-12T07:33:44.508Z,95276.72
2023-03-12T07:34:46.666Z,95283.69
2023-03-12T07:35:51.838Z,95277.50
2023-03-12T07:36:56.396Z,95274.00
2023-03-12T07:37:58.453Z,95269.78
2023-03-12T07:39:01.415Z,95271.69
2023-03-12T07:40:07.314Z,95274.41
2023-03-12T07:41:10.337Z,95278.25
2023-03-12T07:42:13.792Z,95265.88
2023-03-12T07:43:20.396Z,95266.63
2023-03-12T07:44:26.251Z,95267.44
2023-03-12T07:45:29.425Z,95262.03
2023-03-12T07:46:31.395Z,95274.00
2023-03-12T07:47:34.414Z,95268.16
2023-03-12T07:48:37.483Z,95275.53
2023-03-12T07:49:41.787Z,95268.97
2023-03-12T07:50:44.741Z,95277.44
2023-03-12T07:51:46.964Z,95284.41
2023-03-12T07:52:49.846Z,95286.34
2023-03-12T07:53:51.658Z,95287.13
2023-03-12T07:54:56.495Z,95295.25
2023-03-12T07:55:59.534Z,95283.66
2023-03-12T07:57:02.813Z,95282.09
2023-03-12T07:58:06.480Z,95279.78
2023-03-12T07:59:09.569Z,95282.47
2023-03-12T08:00:12.864Z,95285.94
2023-03-12T08:01:17.873Z,95284.81
2023-03-12T08:02:20.875Z,95291.38
2023-03-12T08:03:23.465Z,95295.25
2023-03-12T08:04:26.556Z,95287.53
2023-03-12T08:05:28.624Z,95292.16
2023-03-12T08:06:31.789Z,95303.78
2023-03-12T08:07:35.221Z,95292.53
2023-03-12T08:08:41.747Z,95296.03
2023-03-12T08:09:44.364Z,95297.19
2023-03-12T08:10:47.646Z,95299.88
2023-03-12T08:11:49.550Z,95299.88
2023-03-12T08:12:52.443Z,95298.75
2023-03-12T08:13:56.727Z,95296.81
2023-03-12T08:14:58.935Z,95290.59
2023-03-12T08:16:01.849Z,95287.13
2023-03-12T08:17:03.822Z,95298.72
2023-03-12T08:18:06.735Z,95297.56
2023-03-12T08:19:08.728Z,95299.47
2023-03-12T08:20:13.256Z,95293.69
2023-03-12T08:21:16.670Z,95306.47
2023-03-12T08:22:19.610Z,95294.44
2023-03-12T08:23:23.609Z,95301.03
2023-03-12T08:24:25.755Z,95299.84
2023-03-12T08:25:28.951Z,95299.09
2023-03-12T08:26:31.777Z,95294.44
2023-03-12T08:27:34.925Z,95304.88
2023-03-12T08:28:37.860Z,95302.94
2023-03-12T08:29:42.070Z,95303.69
2023-03-12T08:30:47.456Z,95308.34
2023-03-12T08:32:03.783Z,95307.19
2023-03-12T08:33:07.724Z,95307.19
2023-03-12T08:34:09.718Z,95306.78
2023-03-12T08:35:12.586Z,95308.34
2023-03-12T08:36:15.397Z,95309.13
2023-03-12T08:37:17.756Z,95311.81
2023-03-12T08:38:20.911Z,95321.47
2023-03-12T08:39:22.832Z,95323.03
2023-03-12T08:40:25.678Z,95309.13
2023-03-12T08:41:27.547Z,95318.78
2023-03-12T08:42:30.386Z,95321.09
2023-03-12T08:43:32.220Z,95319.16
2023-03-12T08:44:35.447Z,95326.91
2023-03-12T08:45:38.883Z,95323.03
2023-03-12T08:46:41.728Z,95320.69
2023-03-12T08:47:44.329Z,95327.66
2023-03-12T08:48:47.302Z,95322.25
2023-03-12T08:49:49.235Z,95326.91
2023-03-12T08:50:52.566Z,95319.94
2023-03-12T08:51:54.612Z,95316.81
2023-03-12T08:52:57.454Z,95321.06
2023-03-12T08:53:59.365Z,95321.84
2023-03-12T08:55:02.256Z,95327.66
2023-03-12T08:56:05.219Z,95329.59
2023-03-12T08:57:08.198Z,95325.38
2023-03-12T08:58:10.100Z,95322.25
2023-03-12T08:59:13.583Z,95327.66
2023-03-12T09:00:18.082Z,95321.47
2023-03-12T09:01:21.420Z,95323.38
2023-03-12T09:02:24.334Z,95312.16
2023-03-12T09:03:27.703Z,95324.56
2023-03-12T09:04:29.661Z,95327.25
2023-03-12T09:05:33.772Z,95329.97
2023-03-12T09:06:35.689Z,95324.91
2023-03-12T09:07:38.628Z,95326.47
2023-03-12T09:08:40.552Z,95322.59
2023-03-12T09:09:43.497Z,95323.75
2023-03-12T09:10:48.745Z,95318.34
2023-03-12T09:11:51.615Z,95325.69
2023-03-12T09:12:53.500Z,95331.50
2023-03-12T09:14:33.555Z,95328.78
2023-03-12T09:15:19.800Z,95333.81
2023-03-12T09:16:23.053Z,95333.81
2023-03-12T09:17:26.111Z,95328.78
2023-03-12T09:18:29.347Z,95328.78
2023-03-12T09:19:32.580Z,95322.97
2023-03-12T09:20:35.491Z,95327.63
2023-03-12T09:21:39.921Z,95329.94
2023-03-12T09:22:42.810Z,95329.53
2023-03-12T09:23:46.785Z,95331.47
2023-03-12T09:24:48.686Z,95326.06
2023-03-12T09:25:52.015Z,95330.31
2023-03-12T09:26:54.839Z,95334.56
2023-03-12T09:27:57.016Z,95336.09
2023-03-12T09:29:00.098Z,95333.38
2023-03-12T09:30:02.141Z,95330.69
2023-03-12T09:31:05.945Z,95330.69
2023-03-12T09:32:10.470Z,95336.09
2023-03-12T09:33:13.194Z,95327.97
2023-03-12T09:34:16.059Z,95342.31
2023-03-12T09:35:19.065Z,95343.06
2023-03-12T09:36:21.963Z,95339.59
2023-03-12T09:37:24.506Z,95339.59
2023-03-12T09:38:27.956Z,95338.03
2023-03-12T09:39:29.849Z,95342.69
2023-03-12T09:40:37.188Z,95335.34
2023-03-12T09:41:43.725Z,95343.47
2023-03-12T09:42:50.556Z,95334.94
2023-03-12T09:43:58.506Z,95343.06
2023-03-12T09:45:04.639Z,95339.59
2023-03-12T09:46:13.919Z,95343.06
2023-03-12T09:47:27.960Z,95337.66
2023-03-12T09:48:34.288Z,95334.94
2023-03-12T09:49:40.925Z,95339.19
2023-03-12T09:50:46.968Z,95331.47
2023-03-12T09:51:54.018Z,95340.75
2023-03-12T09:53:01.221Z,95339.19
2023-03-12T09:54:08.032Z,95327.97
2023-03-12T09:55:14.890Z,95327.97
2023-03-12T09:56:19.571Z,95337.66
2023-03-12T09:57:28.967Z,95334.56
2023-03-12T09:58:34.454Z,95324.53
2023-03-12T09:59:37.238Z,95331.09
2023-03-12T10:00:40.292Z,95332.28
2023-03-12T10:01:47.865Z,95329.19
2023-03-12T10:03:08.443Z,95330.72
2023-03-12T10:04:21.541Z,95326.84
2023-03-12T10:05:33.422Z,95327.66
2023-03-12T10:06:39.963Z,95329.19
2023-03-12T10:07:49.353Z,95336.94
2023-03-12T10:09:02.915Z,95340.78
2023-03-12T10:10:17.443Z,95334.63
2023-03-12T10:11:32.173Z,95336.94
2023-03-12T10:12:47.616Z,95337.31
2023-03-12T10:14:05.942Z,95331.53
2023-03-12T10:15:21.336Z,95336.94
2023-03-12T10:16:37.413Z,95343.88
2023-03-12T10:17:49.691Z,95340.81
2023-03-12T10:19:06.833Z,95329.19
2023-03-12T10:20:35.256Z,95344.28
2023-03-12T10:21:47.928Z,95338.09
2023-03-12T10:22:55.635Z,95335.38
2023-03-12T10:24:14.842Z,95341.56
2023-03-12T10:25:22.818Z,95342.34
2023-03-12T10:26:29.449Z,95340.78
2023-03-12T10:27:35.710Z,95337.72
2023-03-12T10:28:43.534Z,95340.81
2023-03-12T10:29:49.845Z,95339.25
2023-03-12T10:30:56.389Z,95345.44
2023-03-12T10:32:02.656Z,95344.69
2023-03-12T10:33:13.452Z,95343.16
2023-03-12T10:34:24.269Z,95350.88
2023-03-12T10:35:30.344Z,95339.66
2023-03-12T10:36:39.142Z,95352.00
2023-03-12T10:37:44.633Z,95355.50
2023-03-12T10:38:49.338Z,95350.88
2023-03-12T10:39:53.145Z,95350.88
2023-03-12T10:40:55.971Z,95352.00
2023-03-12T10:42:01.056Z,95341.19
2023-03-12T10:43:07.119Z,95346.22
2023-03-12T10:44:14.620Z,95348.94
2023-03-12T10:45:25.165Z,95340.41
2023-03-12T10:46:46.767Z,95349.31
2023-03-12T10:47:53.014Z,95338.47
2023-03-12T10:49:24.323Z,95346.22
2023-03-12T10:50:29.216Z,95350.06
2023-03-12T10:51:31.366Z,95350.06
2023-03-12T10:52:34.260Z,95344.66
2023-03-12T10:53:39.038Z,95346.19
2023-03-12T10:54:44.750Z,95341.53
2023-03-12T10:55:59.812Z,95337.69
2023-03-12T10:57:02.233Z,95333.03
2023-03-12T10:58:05.066Z,95335.38
2023-03-12T10:59:21.099Z,95335.38
2023-03-12T11:00:26.864Z,95327.22
2023-03-12T11:01:30.652Z,95335.34
2023-03-12T11:02:35.959Z,95336.47
2023-03-12T11:03:39.344Z,95331.06
2023-03-12T11:04:51.717Z,95325.25
2023-03-12T11:05:56.154Z,95326.81
2023-03-12T11:07:19.138Z,95331.06
2023-03-12T11:08:24.408Z,95338.41
2023-03-12T11:09:26.532Z,95335.72
2023-03-12T11:10:42.557Z,95334.56
2023-03-12T11:11:47.516Z,95329.16
2023-03-12T11:13:05.131Z,95324.50
2023-03-12T11:14:13.061Z,95336.47
2023-03-12T11:15:25.566Z,95334.94
2023-03-12T11:16:31.502Z,95334.94
2023-03-12T11:17:34.988Z,95332.25
2023-03-12T11:18:38.995Z,95334.56
2023-03-12T11:19:45.951Z,95329.91
2023-03-12T11:20:52.481Z,95337.63
2023-03-12T11:21:57.942Z,95338.41
2023-03-12T11:23:15.247Z,95334.91
2023-03-12T11:24:18.145Z,95334.53
2023-03-12T11:25:22.885Z,95327.56
2023-03-12T11:26:30.424Z,95329.13
2023-03-12T11:27:43.667Z,95327.59
2023-03-12T11:28:49.085Z,95328.34
2023-03-12T11:29:52.214Z,95327.59
2023-03-12T11:30:58.385Z,95333.75
2023-03-12T11:32:07.196Z,95322.16
2023-03-12T11:33:12.384Z,95322.56
2023-03-12T11:34:22.278Z,95327.16
2023-03-12T11:35:40.478Z,95325.22
2023-03-12T11:36:50.088Z,95325.22
2023-03-12T11:38:01.091Z,95326.38
2023-03-12T11:39:12.143Z,95321.72
2023-03-12T11:40:22.864Z,95325.59
2023-03-12T11:41:37.230Z,95323.66
2023-03-12T11:42:55.281Z,95322.53
2023-03-12T11:44:18.948Z,95329.47
2023-03-12T11:45:28.235Z,95329.84
2023-03-12T11:46:42.669Z,95328.69
2023-03-12T11:47:58.706Z,95329.84
2023-03-12T11:49:12.885Z,95320.53
2023-03-12T11:50:38.933Z,95320.53
2023-03-12T11:51:53.022Z,95321.31
2023-03-12T11:53:29.537Z,95326.72
2023-03-12T11:54:57.739Z,95316.66
2023-03-12T11:56:13.933Z,95318.97
2023-03-12T11:57:28.721Z,95315.13
2023-03-12T11:58:45.017Z,95317.41
2023-03-12T11:59:58.494Z,95319.34
2023-03-12T12:01:08.313Z,95317.03
2023-03-12T12:02:27.402Z,95319.75
2023-03-12T12:03:44.228Z,95315.84
2023-03-12T12:05:24.005Z,95317.00
2023-03-12T12:06:38.269Z,95315.06
2023-03-12T12:07:54.998Z,95325.50
2023-03-12T12:09:10.115Z,95314.28
2023-03-12T12:10:24.296Z,95314.28
2023-03-12T12:11:37.344Z,95322.78
2023-03-12T12:12:52.103Z,95313.47
2023-03-12T12:14:11.389Z,95314.28
2023-03-12T12:15:21.198Z,95319.69
2023-03-12T12:16:37.265Z,95318.13
2023-03-12T12:17:52.986Z,95311.91
2023-03-12T12:19:09.105Z,95321.22
2023-03-12T12:20:26.824Z,95321.22
2023-03-12T12:21:44.589Z,95320.44
2023-03-12T12:22:59.271Z,95308.00
2023-03-12T12:24:12.536Z,95307.25
2023-03-12T12:25:39.540Z,95310.72
2023-03-12T12:26:47.909Z,95308.00
2023-03-12T12:28:04.000Z,95319.22
2023-03-12T12:29:20.794Z,95309.56
2023-03-12T12:30:27.983Z,95318.09
2023-03-12T12:31:37.416Z,95301.81
2023-03-12T12:32:59.627Z,95304.53
2023-03-12T12:34:29.058Z,95314.97
2023-03-12T12:35:36.972Z,95302.97
2023-03-12T12:36:40.331Z,95311.84
2023-03-12T12:37:51.569Z,95297.16
2023-03-12T12:39:01.235Z,95303.34
2023-03-12T12:40:17.097Z,95301.41
2023-03-12T12:41:23.700Z,95302.16
2023-03-12T12:42:32.792Z,95301.78
2023-03-12T12:43:39.681Z,95303.31
2023-03-12T12:44:46.874Z,95305.63
2023-03-12T12:45:52.356Z,95297.09
2023-03-12T12:47:01.246Z,95298.63